Time;durP1;ratioP1;P1;durP2;ratioP2;P2;SDS_P1;SDS_P2;PMS_P1;PMS_P2;Temp;Humidity;BMP_temperature;BMP_pressure;BME280_temperature;BME280_humidity;BME280_pressure;Samples;Min_cycle;Max_cycle;Signal;HPM_P1;HPM_P2
2023/08/14 00:01:03;;;;;;;1.92;1.10;;;16.10;99.90;;;;;;5031767;28;20037;-72
2023/08/14 00:03:29;;;;;;;3.55;1.17;;;16.10;99.90;;;;;;5030324;28;20072;-71
2023/08/14 00:05:54;;;;;;;1.63;1.00;;;16.10;99.90;;;;;;5030687;28;20391;-71
2023/08/14 00:08:20;;;;;;;3.78;1.10;;;16.00;99.90;;;;;;5031360;28;20399;-71
2023/08/14 00:10:45;;;;;;;2.45;1.40;;;16.00;99.90;;;;;;5031739;28;20034;-71
2023/08/14 00:13:12;;;;;;;2.58;1.20;;;16.00;99.90;;;;;;5046623;28;20041;-71
2023/08/14 00:15:38;;;;;;;1.95;1.20;;;16.00;99.90;;;;;;5031565;28;20575;-72
2023/08/14 00:18:04;;;;;;;2.30;1.40;;;16.00;99.90;;;;;;5013526;28;20132;-71
2023/08/14 00:20:30;;;;;;;2.40;1.40;;;16.00;99.90;;;;;;5030971;28;20403;-71
2023/08/14 00:22:55;;;;;;;2.58;1.17;;;16.00;99.90;;;;;;5046769;28;20053;-71
2023/08/14 00:25:22;;;;;;;3.45;1.00;;;16.00;99.90;;;;;;5031440;28;20052;-71
2023/08/14 00:27:47;;;;;;;3.63;1.23;;;15.90;99.90;;;;;;5031209;28;20061;-71
2023/08/14 00:30:13;;;;;;;2.35;1.30;;;15.90;99.90;;;;;;5030123;28;20041;-71
2023/08/14 00:32:39;;;;;;;3.38;1.27;;;15.90;99.90;;;;;;5031055;28;20518;-71
2023/08/14 00:35:05;;;;;;;2.50;1.40;;;15.90;99.90;;;;;;5029617;28;20049;-72
2023/08/14 00:37:48;;;;;;;2.50;1.55;;;15.90;99.90;;;;;;5029669;28;20052;-72
2023/08/14 00:40:15;;;;;;;2.60;1.33;;;15.90;99.90;;;;;;5029651;28;20037;-72
2023/08/14 00:42:45;;;;;;;2.88;1.67;;;15.90;99.90;;;;;;5030935;28;20179;-71
2023/08/14 00:45:11;;;;;;;2.33;1.35;;;15.80;99.90;;;;;;5029614;28;20049;-71
2023/08/14 00:47:37;;;;;;;3.42;1.33;;;15.90;99.90;;;;;;5029706;28;20045;-71
2023/08/14 00:50:05;;;;;;;2.85;1.52;;;15.80;99.90;;;;;;5045886;28;20033;-71
2023/08/14 00:52:32;;;;;;;3.78;1.45;;;15.80;99.90;;;;;;5046207;28;20041;-71
2023/08/14 00:55:02;;;;;;;3.53;1.42;;;15.80;99.90;;;;;;5045963;28;20033;-71
2023/08/14 00:57:31;;;;;;;2.88;1.40;;;15.80;99.90;;;;;;5030842;28;20037;-71
2023/08/14 00:59:59;;;;;;;2.95;1.42;;;15.80;99.90;;;;;;5031313;28;20045;-71
2023/08/14 01:02:25;;;;;;;2.80;1.48;;;15.70;99.90;;;;;;5030969;28;20577;-71
2023/08/14 01:04:51;;;;;;;9.07;2.22;;;15.80;99.90;;;;;;5030582;28;20041;-72
2023/08/14 01:07:16;;;;;;;3.50;1.80;;;15.70;99.90;;;;;;5029537;28;20376;-72
2023/08/14 01:09:42;;;;;;;3.30;1.88;;;15.80;99.90;;;;;;5030621;28;20095;-71
2023/08/14 01:12:20;;;;;;;4.85;2.08;;;15.70;99.90;;;;;;5029453;28;20095;-72
2023/08/14 01:14:51;;;;;;;3.97;1.98;;;15.80;99.90;;;;;;5030832;28;20487;-72
2023/08/14 01:17:18;;;;;;;4.47;1.90;;;15.80;99.90;;;;;;5045652;28;20485;-71
2023/08/14 01:19:47;;;;;;;6.45;2.30;;;15.80;99.90;;;;;;5029577;28;20076;-71
2023/08/14 01:22:28;;;;;;;5.22;2.35;;;15.80;99.90;;;;;;5030511;28;20046;-71
2023/08/14 01:25:18;;;;;;;5.72;2.10;;;15.80;99.90;;;;;;5029404;28;20033;-71
2023/08/14 01:27:44;;;;;;;3.60;1.90;;;15.80;99.90;;;;;;5030166;28;20045;-71
2023/08/14 01:30:10;;;;;;;5.72;2.35;;;15.80;99.90;;;;;;5030699;28;20367;-71
2023/08/14 01:32:36;;;;;;;5.93;2.08;;;15.70;99.90;;;;;;5014615;28;20077;-71
2023/08/14 01:35:02;;;;;;;5.35;2.42;;;15.70;99.90;;;;;;5033079;28;20482;-71
2023/08/14 01:37:51;;;;;;;3.63;2.22;;;15.70;99.90;;;;;;5034473;28;20033;-71
2023/08/14 01:40:53;;;;;;;5.28;2.20;;;15.70;99.90;;;;;;5034248;28;20038;-71
2023/08/14 01:43:26;;;;;;;4.22;2.35;;;15.60;99.90;;;;;;5034174;28;20038;-71
2023/08/14 01:45:54;;;;;;;3.85;2.25;;;15.60;99.90;;;;;;5033083;28;20073;-71
2023/08/14 01:48:23;;;;;;;4.88;2.50;;;15.60;99.90;;;;;;5033991;28;20041;-71
2023/08/14 01:50:51;;;;;;;4.50;2.30;;;15.70;99.90;;;;;;5032941;28;20395;-71
2023/08/14 01:53:17;;;;;;;6.80;2.58;;;15.70;99.90;;;;;;5033916;28;20053;-71
2023/08/14 01:55:43;;;;;;;4.70;2.47;;;15.60;99.90;;;;;;5016266;28;20516;-71
2023/08/14 01:58:09;;;;;;;3.45;1.83;;;15.70;99.90;;;;;;5032666;28;20128;-71
2023/08/14 02:00:36;;;;;;;4.30;2.33;;;15.70;99.90;;;;;;5032792;28;20472;-71
2023/08/14 02:03:02;;;;;;;4.30;2.03;;;15.70;99.90;;;;;;5032648;28;20037;-71
2023/08/14 02:05:27;;;;;;;5.90;3.10;;;15.70;99.90;;;;;;5032822;28;20120;-71
2023/08/14 02:07:53;;;;;;;4.63;2.33;;;15.60;99.90;;;;;;5034238;28;20052;-72
2023/08/14 02:10:18;;;;;;;6.35;2.60;;;15.60;99.90;;;;;;5032468;28;20041;-71
2023/08/14 02:12:44;;;;;;;3.58;1.95;;;15.60;99.90;;;;;;5033716;28;20056;-71
2023/08/14 02:15:10;;;;;;;3.15;1.77;;;15.60;99.90;;;;;;5032153;28;20045;-71
2023/08/14 02:17:35;;;;;;;2.80;1.60;;;15.60;99.90;;;;;;5033565;28;20036;-71
2023/08/14 02:20:01;;;;;;;4.38;2.20;;;15.60;99.90;;;;;;5033804;28;20041;-71
2023/08/14 02:22:26;;;;;;;4.88;2.60;;;15.60;99.90;;;;;;5033950;28;20034;-72
2023/08/14 02:24:52;;;;;;;5.93;3.20;;;15.50;99.90;;;;;;5032428;28;20026;-72
2023/08/14 02:27:18;;;;;;;5.97;2.53;;;15.50;99.90;;;;;;5032156;28;20053;-72
2023/08/14 02:29:45;;;;;;;8.25;3.45;;;15.50;99.90;;;;;;5033500;28;20041;-72
2023/08/14 02:32:11;;;;;;;4.43;2.60;;;15.50;99.90;;;;;;5032127;28;20048;-71
2023/08/14 02:34:44;;;;;;;6.20;3.50;;;15.50;99.90;;;;;;5033430;28;20442;-71
2023/08/14 02:37:14;;;;;;;5.32;2.92;;;15.50;99.90;;;;;;5032157;28;20100;-71
2023/08/14 02:39:39;;;;;;;5.47;2.65;;;15.60;99.90;;;;;;5015516;28;20053;-71
2023/08/14 02:42:05;;;;;;;8.35;3.20;;;15.60;99.90;;;;;;5033233;28;20030;-71
2023/08/14 02:44:31;;;;;;;5.93;2.72;;;15.60;99.90;;;;;;5031386;28;20075;-71
2023/08/14 02:46:57;;;;;;;5.15;2.55;;;15.50;99.90;;;;;;5031832;28;20052;-71
2023/08/14 02:49:23;;;;;;;5.05;2.15;;;15.50;99.90;;;;;;5032118;28;20041;-72
2023/08/14 02:51:49;;;;;;;3.80;1.88;;;15.50;99.90;;;;;;5033083;28;20368;-72
2023/08/14 02:54:14;;;;;;;4.15;2.47;;;15.50;99.90;;;;;;5032826;28;20510;-71
2023/08/14 02:56:40;;;;;;;4.50;2.50;;;15.40;99.90;;;;;;5032956;28;20079;-71
2023/08/14 02:59:06;;;;;;;6.85;2.80;;;15.50;99.90;;;;;;5048222;28;20040;-71
2023/08/14 03:01:31;;;;;;;4.57;2.42;;;15.50;99.90;;;;;;5031655;28;20079;-71
2023/08/14 03:03:57;;;;;;;4.85;2.15;;;15.40;99.90;;;;;;5015505;28;20049;-71
2023/08/14 03:06:23;;;;;;;4.57;2.70;;;15.40;99.90;;;;;;5031759;28;20565;-72
2023/08/14 03:08:49;;;;;;;5.70;2.67;;;15.50;99.90;;;;;;5048027;28;20045;-72
2023/08/14 03:11:14;;;;;;;8.45;2.45;;;15.40;99.90;;;;;;5015191;28;20397;-71
2023/08/14 03:13:40;;;;;;;5.95;2.70;;;15.50;99.90;;;;;;5031227;28;20041;-71
2023/08/14 03:16:06;;;;;;;5.68;2.75;;;15.40;99.90;;;;;;5032358;28;20033;-71
2023/08/14 03:18:31;;;;;;;5.63;2.78;;;15.40;99.90;;;;;;5032467;28;20033;-71
2023/08/14 03:20:57;;;;;;;5.90;2.65;;;15.40;99.90;;;;;;5031723;28;20056;-71
2023/08/14 03:23:23;;;;;;;5.88;2.70;;;15.50;99.90;;;;;;5032574;28;20037;-71
2023/08/14 03:25:48;;;;;;;7.35;2.83;;;15.40;99.90;;;;;;5031030;28;20511;-71
2023/08/14 03:28:14;;;;;;;5.97;2.70;;;15.40;99.90;;;;;;5032180;28;20097;-71
2023/08/14 03:30:41;;;;;;;5.32;2.83;;;15.40;99.90;;;;;;5032212;28;20081;-72
2023/08/14 03:33:07;;;;;;;5.90;3.33;;;15.40;99.90;;;;;;5047605;28;20065;-71
2023/08/14 03:35:32;;;;;;;4.88;2.60;;;15.40;99.90;;;;;;5014242;28;20044;-71
2023/08/14 03:37:58;;;;;;;5.57;2.63;;;15.40;99.90;;;;;;5014739;28;20272;-72
2023/08/14 03:40:24;;;;;;;5.38;3.17;;;15.40;99.90;;;;;;5032253;28;20518;-71
2023/08/14 03:42:49;;;;;;;7.07;3.33;;;15.40;99.90;;;;;;5030780;28;20045;-71
2023/08/14 03:45:15;;;;;;;6.00;3.22;;;15.40;99.90;;;;;;5030494;28;20076;-71
2023/08/14 03:47:40;;;;;;;6.82;3.05;;;15.40;99.90;;;;;;5030938;28;20119;-72
2023/08/14 03:50:06;;;;;;;7.40;3.33;;;15.40;99.90;;;;;;5047231;28;20423;-72
2023/08/14 03:52:32;;;;;;;8.00;3.13;;;15.40;99.90;;;;;;5031940;28;20041;-71
2023/08/14 03:54:58;;;;;;;7.40;3.40;;;15.40;99.90;;;;;;5030289;28;20369;-71
2023/08/14 03:57:23;;;;;;;6.32;2.92;;;15.40;99.90;;;;;;5030525;28;20534;-71
2023/08/14 03:59:49;;;;;;;7.80;3.28;;;15.40;99.90;;;;;;5030271;28;20037;-72
2023/08/14 04:02:14;;;;;;;6.53;3.42;;;15.40;99.90;;;;;;5030372;28;20076;-72
2023/08/14 04:04:40;;;;;;;7.90;4.20;;;15.40;99.90;;;;;;5031593;28;20072;-71
2023/08/14 04:07:06;;;;;;;7.30;3.40;;;15.40;99.90;;;;;;5030463;28;20059;-72
2023/08/14 04:09:31;;;;;;;6.40;3.50;;;15.40;99.90;;;;;;5046903;28;20411;-72
2023/08/14 04:11:57;;;;;;;10.32;3.67;;;15.40;99.90;;;;;;5031841;28;20457;-72
2023/08/14 04:14:23;;;;;;;9.50;3.53;;;15.40;99.90;;;;;;5046663;28;20053;-72
2023/08/14 04:16:49;;;;;;;6.60;3.33;;;15.40;99.90;;;;;;5046674;28;20101;-71
2023/08/14 04:19:17;;;;;;;8.15;4.05;;;15.40;99.90;;;;;;5013663;28;20030;-72
2023/08/14 04:21:43;;;;;;;8.30;2.88;;;15.40;99.90;;;;;;5031452;28;20446;-71
2023/08/14 04:24:10;;;;;;;8.43;3.42;;;15.40;99.90;;;;;;5031410;28;20041;-71
2023/08/14 04:26:36;;;;;;;7.00;3.35;;;15.40;99.90;;;;;;5031177;28;20056;-72
2023/08/14 04:29:12;;;;;;;6.72;3.40;;;15.50;99.90;;;;;;5046360;28;20045;-71
2023/08/14 04:31:38;;;;;;;;;;;15.50;99.90;;;;;;5030214;28;20415;-72
2023/08/14 04:34:05;;;;;;;8.40;3.40;;;15.50;99.90;;;;;;5031283;28;19988;-71
2023/08/14 04:36:32;;;;;;;8.73;3.42;;;15.40;99.90;;;;;;5029653;28;20613;-71
2023/08/14 04:38:58;;;;;;;12.45;3.90;;;15.50;99.90;;;;;;5031134;28;20041;-71
2023/08/14 04:41:25;;;;;;;6.53;3.38;;;15.50;99.90;;;;;;5031028;28;20040;-71
2023/08/14 04:43:51;;;;;;;7.28;3.63;;;15.50;99.90;;;;;;5029898;28;20337;-71
2023/08/14 04:46:34;;;;;;;7.88;2.97;;;15.50;99.90;;;;;;5030973;28;20136;-71
2023/08/14 04:49:00;;;;;;;6.05;2.70;;;15.50;99.90;;;;;;5031133;28;20084;-71
2023/08/14 04:51:26;;;;;;;9.80;3.83;;;15.50;99.90;;;;;;5031074;28;20106;-71
2023/08/14 04:53:53;;;;;;;5.68;3.40;;;15.50;99.90;;;;;;5029185;28;20045;-71
2023/08/14 04:56:19;;;;;;;8.00;3.33;;;15.50;99.90;;;;;;5045974;28;20049;-71
2023/08/14 04:58:45;;;;;;;7.82;3.17;;;15.50;99.90;;;;;;5029794;28;20044;-71
2023/08/14 05:01:10;;;;;;;9.00;3.75;;;15.60;99.90;;;;;;5029700;28;20575;-72
2023/08/14 05:03:36;;;;;;;10.63;3.75;;;15.60;99.90;;;;;;5029551;28;20569;-72
2023/08/14 05:06:02;;;;;;;7.35;3.25;;;15.60;99.90;;;;;;5030564;28;20674;-71
2023/08/14 05:08:27;;;;;;;8.43;3.40;;;15.60;99.90;;;;;;5030504;28;20091;-72
2023/08/14 05:10:54;;;;;;;6.63;3.25;;;15.70;99.90;;;;;;5031396;28;20117;-71
2023/08/14 05:13:20;;;;;;;7.60;3.60;;;15.70;99.90;;;;;;5045802;28;20037;-71
2023/08/14 05:15:47;;;;;;;5.95;3.08;;;15.70;99.90;;;;;;5029448;28;20044;-72
2023/08/14 05:18:13;;;;;;;7.53;3.67;;;15.70;99.90;;;;;;5029323;28;20045;-72
2023/08/14 05:20:39;;;;;;;7.07;3.50;;;15.70;99.90;;;;;;5030554;28;20079;-72
2023/08/14 05:23:05;;;;;;;8.57;3.20;;;15.80;99.90;;;;;;5030403;28;20399;-71
2023/08/14 05:25:31;;;;;;;10.40;3.25;;;15.80;99.90;;;;;;5030552;28;20446;-72
2023/08/14 05:27:57;;;;;;;7.47;3.05;;;15.80;99.90;;;;;;5029092;28;20085;-71
2023/08/14 05:30:22;;;;;;;11.35;3.63;;;15.80;99.90;;;;;;5029400;28;20494;-71
2023/08/14 05:32:48;;;;;;;6.38;3.28;;;15.90;99.90;;;;;;5030508;28;20037;-71
2023/08/14 05:35:16;;;;;;;9.30;3.08;;;15.90;99.90;;;;;;5029168;28;20095;-72
2023/08/14 05:37:42;;;;;;;8.50;3.60;;;16.00;99.90;;;;;;5028807;28;20557;-72
2023/08/14 05:40:08;;;;;;;7.97;3.40;;;16.00;99.90;;;;;;5030630;28;20128;-71
2023/08/14 05:42:34;;;;;;;7.35;3.58;;;16.00;99.90;;;;;;5029133;28;20046;-71
2023/08/14 05:44:59;;;;;;;5.90;3.33;;;16.10;99.90;;;;;;5029038;28;20041;-72
2023/08/14 05:47:25;;;;;;;6.93;3.45;;;16.10;99.90;;;;;;5029040;28;20520;-72
2023/08/14 05:49:50;;;;;;;6.07;3.08;;;16.10;99.90;;;;;;5012589;28;20048;-72
2023/08/14 05:52:16;;;;;;;6.10;2.92;;;16.10;99.90;;;;;;5029945;28;20034;-72
2023/08/14 05:54:41;;;;;;;7.22;3.47;;;16.20;99.90;;;;;;5030222;28;20077;-71
2023/08/14 05:57:07;;;;;;;5.85;3.08;;;16.20;99.90;;;;;;5028766;28;20091;-72
2023/08/14 05:59:33;;;;;;;6.38;2.60;;;16.30;99.90;;;;;;5029113;28;20075;-71
2023/08/14 06:01:58;;;;;;;4.75;2.47;;;16.30;99.90;;;;;;5030210;28;20093;-72
2023/08/14 06:04:26;;;;;;;5.72;2.85;;;16.30;99.90;;;;;;5029291;28;20091;-72
2023/08/14 06:06:53;;;;;;;5.60;3.10;;;16.30;99.90;;;;;;5029863;28;20048;-72
2023/08/14 06:09:19;;;;;;;7.90;3.33;;;16.40;99.90;;;;;;5045494;28;20475;-72
2023/08/14 06:11:45;;;;;;;6.32;3.00;;;16.40;99.90;;;;;;5045645;28;20172;-72
2023/08/14 06:14:10;;;;;;;7.30;2.80;;;16.50;99.90;;;;;;5030089;28;20467;-71
2023/08/14 06:16:36;;;;;;;10.55;3.60;;;16.50;99.90;;;;;;5028934;28;20447;-71
2023/08/14 06:19:02;;;;;;;8.73;2.40;;;16.50;99.90;;;;;;5032281;28;20034;-72
2023/08/14 06:21:27;;;;;;;5.90;3.20;;;16.50;99.90;;;;;;5032394;28;20046;-72
2023/08/14 06:23:53;;;;;;;9.07;3.40;;;16.50;99.90;;;;;;5032585;28;20407;-72
2023/08/14 06:26:19;;;;;;;7.93;3.05;;;16.50;99.90;;;;;;5033411;28;20122;-71
2023/08/14 06:28:44;;;;;;;7.07;2.67;;;16.60;99.90;;;;;;5032164;28;20540;-71
2023/08/14 06:31:10;;;;;;;9.02;3.35;;;16.60;99.90;;;;;;5032329;28;20041;-72
2023/08/14 06:33:36;;;;;;;6.38;2.83;;;16.60;99.90;;;;;;5033309;28;20041;-72
2023/08/14 06:36:01;;;;;;;7.53;3.25;;;16.60;99.90;;;;;;5031911;28;20116;-72
2023/08/14 06:38:27;;;;;;;4.90;2.67;;;16.70;99.90;;;;;;5032360;28;20098;-71
2023/08/14 06:40:53;;;;;;;5.28;2.88;;;16.70;99.90;;;;;;5032437;28;20317;-72
2023/08/14 06:43:19;;;;;;;7.45;3.47;;;16.70;99.90;;;;;;5031911;28;20570;-72
2023/08/14 06:45:46;;;;;;;6.85;2.67;;;16.70;99.90;;;;;;5048526;28;20455;-72
2023/08/14 06:48:12;;;;;;;6.82;3.15;;;16.80;99.90;;;;;;5031737;28;20077;-72
2023/08/14 06:50:38;;;;;;;6.05;2.90;;;16.80;99.90;;;;;;5048432;28;20076;-72
2023/08/14 06:53:03;;;;;;;5.32;2.95;;;16.80;99.90;;;;;;5048504;28;20463;-72
2023/08/14 06:55:29;;;;;;;4.50;2.70;;;16.80;99.90;;;;;;5015146;28;20488;-72
2023/08/14 06:57:54;;;;;;;7.70;3.38;;;16.80;99.90;;;;;;5015256;28;20068;-72
2023/08/14 07:00:20;;;;;;;5.75;3.17;;;16.90;99.90;;;;;;5032970;28;20030;-72
2023/08/14 07:02:47;;;;;;;5.22;2.45;;;16.90;99.90;;;;;;5033026;28;20491;-72
2023/08/14 07:05:13;;;;;;;4.93;2.70;;;16.90;99.90;;;;;;5032656;28;20092;-72
2023/08/14 07:07:39;;;;;;;7.82;3.08;;;16.90;99.90;;;;;;5031320;28;20045;-72
2023/08/14 07:10:06;;;;;;;4.82;2.38;;;17.00;99.90;;;;;;5033000;28;20507;-72
2023/08/14 07:12:31;;;;;;;4.97;2.70;;;17.00;99.90;;;;;;5032602;28;20526;-72
2023/08/14 07:14:58;;;;;;;5.13;2.72;;;17.00;99.90;;;;;;5032867;28;20124;-72
2023/08/14 07:17:23;;;;;;;4.55;2.35;;;17.00;99.90;;;;;;5015029;28;20041;-72
2023/08/14 07:19:49;;;;;;;8.43;2.97;;;17.10;99.90;;;;;;5031233;28;20037;-72
2023/08/14 07:22:14;;;;;;;5.22;2.58;;;17.10;99.90;;;;;;5031278;28;20065;-72
2023/08/14 07:24:40;;;;;;;6.82;2.80;;;17.10;99.90;;;;;;5032697;28;20048;-72
2023/08/14 07:27:05;;;;;;;8.82;2.90;;;17.10;99.90;;;;;;5030924;28;20106;-72
2023/08/14 07:29:31;;;;;;;7.20;2.80;;;17.20;99.90;;;;;;5031113;28;20049;-72
2023/08/14 07:31:57;;;;;;;9.00;3.08;;;17.20;99.90;;;;;;5031328;28;20223;-72
2023/08/14 07:34:22;;;;;;;7.40;2.75;;;17.20;99.90;;;;;;5047465;28;20091;-72
2023/08/14 07:36:48;;;;;;;9.52;3.30;;;17.30;99.90;;;;;;5031000;28;20041;-72
2023/08/14 07:39:14;;;;;;;8.93;3.05;;;17.40;99.90;;;;;;5030999;28;20045;-72
2023/08/14 07:41:39;;;;;;;8.00;2.88;;;17.40;99.90;;;;;;5031230;28;20447;-72
2023/08/14 07:44:05;;;;;;;7.10;2.60;;;17.50;99.90;;;;;;5032197;28;20084;-72
2023/08/14 07:46:31;;;;;;;5.78;3.05;;;17.60;99.90;;;;;;5032020;28;20121;-72
2023/08/14 07:48:56;;;;;;;5.97;2.58;;;17.70;99.90;;;;;;5032020;28;20038;-72
2023/08/14 07:51:22;;;;;;;7.15;2.50;;;17.80;99.90;;;;;;5030904;28;20053;-72
2023/08/14 07:53:47;;;;;;;7.07;3.20;;;17.90;99.90;;;;;;5030650;28;20133;-72
2023/08/14 07:56:13;;;;;;;5.50;2.58;;;18.00;99.90;;;;;;5014093;28;20121;-72
2023/08/14 07:58:41;;;;;;;8.23;2.40;;;18.10;99.90;;;;;;5031547;28;20034;-72
2023/08/14 08:01:07;;;;;;;4.90;2.45;;;18.20;99.90;;;;;;5014021;28;20047;-72
2023/08/14 08:03:33;;;;;;;6.82;2.50;;;18.30;99.90;;;;;;5031566;28;20231;-72
2023/08/14 08:06:00;;;;;;;3.15;1.65;;;18.40;99.90;;;;;;5030512;28;20057;-72
2023/08/14 08:08:25;;;;;;;5.78;2.50;;;18.40;99.90;;;;;;5030295;28;20091;-72
2023/08/14 08:10:51;;;;;;;8.23;2.40;;;18.40;99.90;;;;;;5030391;28;20041;-72
2023/08/14 08:13:16;;;;;;;5.38;1.92;;;18.50;99.90;;;;;;5031350;28;20045;-72
2023/08/14 08:15:42;;;;;;;4.68;1.95;;;18.50;99.90;;;;;;5030205;28;20048;-72
2023/08/14 08:18:08;;;;;;;3.95;1.50;;;18.60;99.90;;;;;;5030088;28;20120;-72
2023/08/14 08:20:33;;;;;;;3.72;2.05;;;18.60;99.90;;;;;;5030152;28;20089;-72
2023/08/14 08:22:59;;;;;;;7.70;2.10;;;18.60;99.90;;;;;;5030208;28;20034;-72
2023/08/14 08:25:24;;;;;;;4.78;1.95;;;18.70;99.90;;;;;;5030353;28;20037;-72
2023/08/14 08:27:50;;;;;;;3.63;1.83;;;18.70;99.90;;;;;;5031026;28;20128;-72
2023/08/14 08:30:16;;;;;;;5.30;1.70;;;18.70;99.90;;;;;;5029906;28;20487;-72
2023/08/14 08:32:41;;;;;;;4.82;1.90;;;18.80;99.90;;;;;;5030207;28;20041;-72
2023/08/14 08:35:07;;;;;;;4.93;1.55;;;18.90;99.90;;;;;;5046453;28;20475;-72
2023/08/14 08:37:33;;;;;;;2.60;1.25;;;19.00;99.90;;;;;;5031258;28;20033;-72
2023/08/14 08:39:58;;;;;;;7.72;1.80;;;19.00;99.90;;;;;;5031005;28;20041;-72
2023/08/14 08:42:25;;;;;;;3.70;1.83;;;19.10;99.90;;;;;;5030880;28;20091;-72
2023/08/14 08:44:55;;;;;;;5.68;1.60;;;19.10;99.90;;;;;;5031027;28;20400;-72
2023/08/14 08:47:24;;;;;;;4.90;1.80;;;19.20;99.90;;;;;;5030765;28;20037;-72
2023/08/14 08:49:50;;;;;;;3.70;2.13;;;19.20;99.90;;;;;;5031036;28;20037;-72
2023/08/14 08:52:17;;;;;;;4.28;1.67;;;19.30;99.90;;;;;;5046470;28;20049;-72
2023/08/14 08:54:42;;;;;;;6.65;1.73;;;19.20;99.90;;;;;;5046148;28;20125;-72
2023/08/14 08:57:08;;;;;;;4.13;1.80;;;19.20;99.90;;;;;;5013294;28;20124;-72
2023/08/14 08:59:34;;;;;;;2.60;1.42;;;19.30;99.90;;;;;;5045934;28;20075;-72
2023/08/14 09:02:00;;;;;;;5.07;1.67;;;19.30;99.90;;;;;;5013011;28;20545;-72
2023/08/14 09:04:26;;;;;;;3.42;1.10;;;19.20;99.90;;;;;;5029616;28;20125;-72
2023/08/14 09:06:51;;;;;;;2.25;1.30;;;19.20;99.90;;;;;;5012990;28;20418;-72
2023/08/14 09:09:18;;;;;;;2.15;1.27;;;19.20;99.90;;;;;;5030568;28;20092;-72
2023/08/14 09:11:44;;;;;;;4.25;1.70;;;19.20;99.90;;;;;;5029871;28;20080;-72
2023/08/14 09:14:09;;;;;;;6.38;1.52;;;19.20;99.90;;;;;;5012898;28;20462;-72
2023/08/14 09:16:35;;;;;;;6.43;1.48;;;19.30;99.90;;;;;;5029108;28;20095;-72
2023/08/14 09:19:01;;;;;;;6.45;1.83;;;19.40;99.90;;;;;;5030511;28;20048;-72
2023/08/14 09:21:28;;;;;;;8.77;2.42;;;19.40;99.90;;;;;;5030613;28;20045;-72
2023/08/14 09:23:54;;;;;;;4.28;2.22;;;19.50;99.90;;;;;;5029735;28;20037;-72
2023/08/14 09:26:21;;;;;;;4.25;1.90;;;19.50;99.90;;;;;;5045952;28;20045;-72
2023/08/14 09:28:47;;;;;;;5.25;2.13;;;19.50;99.90;;;;;;5046140;28;20076;-72
2023/08/14 09:31:14;;;;;;;4.82;2.13;;;19.60;99.90;;;;;;5045552;28;20090;-73
2023/08/14 09:33:41;;;;;;;6.50;2.30;;;19.60;99.90;;;;;;5045757;28;20045;-72
2023/08/14 09:36:07;;;;;;;5.32;2.10;;;19.60;99.90;;;;;;5030599;28;20056;-72
2023/08/14 09:38:33;;;;;;;4.18;2.00;;;19.60;99.90;;;;;;5029285;28;20045;-72
2023/08/14 09:41:00;;;;;;;3.20;2.03;;;19.70;99.90;;;;;;5030369;28;20406;-72
2023/08/14 09:43:26;;;;;;;3.83;1.90;;;19.80;99.90;;;;;;5030694;28;20041;-73
2023/08/14 09:45:53;;;;;;;4.80;1.90;;;19.90;99.90;;;;;;5030287;28;20059;-72
2023/08/14 09:48:19;;;;;;;4.03;1.77;;;19.90;99.90;;;;;;5029028;28;20550;-72
2023/08/14 09:50:52;;;;;;;3.67;1.92;;;20.00;99.90;;;;;;5029154;28;20125;-72
2023/08/14 09:53:18;;;;;;;2.33;1.40;;;20.00;99.90;;;;;;5030279;28;20186;-72
2023/08/14 09:55:43;;;;;;;3.67;1.50;;;20.10;99.90;;;;;;5034208;28;20037;-73
2023/08/14 09:58:10;;;;;;;2.42;1.42;;;20.10;99.90;;;;;;5034046;28;20037;-72
2023/08/14 10:00:38;;;;;;;3.88;1.42;;;20.20;99.90;;;;;;5032613;28;20095;-72
2023/08/14 10:03:07;;;;;;;2.80;1.40;;;20.20;99.90;;;;;;5032747;28;20553;-73
2023/08/14 10:05:33;;;;;;;2.15;1.30;;;20.20;99.90;;;;;;5034061;28;20452;-72
2023/08/14 10:08:00;;;;;;;2.20;1.00;;;20.20;99.90;;;;;;5049301;28;20071;-72
2023/08/14 10:10:30;;;;;;;6.25;1.60;;;20.30;99.90;;;;;;5033905;28;20045;-72
2023/08/14 10:13:04;;;;;;;6.13;1.33;;;20.40;99.90;;;;;;5049111;28;20098;-72
2023/08/14 10:15:34;;;;;;;3.97;1.40;;;20.40;99.90;;;;;;5032389;28;20041;-72
2023/08/14 10:18:04;;;;;;;2.72;0.90;;;20.40;99.90;;;;;;5033902;28;20034;-72
2023/08/14 10:20:33;;;;;;;3.75;1.15;;;20.50;99.90;;;;;;5032326;28;20037;-72
2023/08/14 10:23:00;;;;;;;3.70;1.10;;;20.60;99.90;;;;;;5033691;28;20083;-72
2023/08/14 10:25:27;;;;;;;2.92;1.10;;;20.50;99.90;;;;;;5033535;28;20034;-72
2023/08/14 10:27:53;;;;;;;2.90;1.02;;;20.50;99.90;;;;;;5033674;28;20056;-72
2023/08/14 10:30:24;;;;;;;1.80;1.00;;;20.50;99.90;;;;;;5032053;28;20041;-72
2023/08/14 10:32:51;;;;;;;2.45;1.27;;;20.60;99.90;;;;;;5032075;28;20510;-72
2023/08/14 10:35:17;;;;;;;3.30;1.17;;;20.60;99.90;;;;;;5032305;28;20099;-72
2023/08/14 10:37:44;;;;;;;1.92;0.77;;;20.60;99.90;;;;;;5032255;28;20483;-72
2023/08/14 10:40:14;;;;;;;3.13;1.02;;;20.60;99.90;;;;;;5048567;28;20042;-72
2023/08/14 10:43:06;;;;;;;9.25;1.13;;;20.60;99.90;;;;;;5033353;28;20037;-73
2023/08/14 10:45:33;;;;;;;2.15;1.00;;;20.70;99.90;;;;;;5029513;28;20050;-72
2023/08/14 10:48:07;;;;;;;4.38;1.05;;;20.70;99.90;;;;;;5032301;28;20041;-72
2023/08/14 10:50:33;;;;;;;1.92;0.70;;;20.70;99.90;;;;;;5032826;28;20041;-72
2023/08/14 10:53:01;;;;;;;1.80;0.80;;;20.80;99.90;;;;;;5033295;28;20128;-72
2023/08/14 10:55:39;;;;;;;3.00;0.90;;;20.80;99.90;;;;;;5048684;28;20041;-72
2023/08/14 10:58:38;;;;;;;2.55;0.98;;;20.80;99.90;;;;;;5033214;28;20041;-73
2023/08/14 11:01:09;;;;;;;1.63;1.00;;;20.80;99.90;;;;;;5024883;28;20060;-72
2023/08/14 11:03:54;;;;;;;2.17;0.90;;;20.90;99.90;;;;;;5032835;28;20049;-72
2023/08/14 11:06:28;;;;;;;2.53;1.00;;;20.90;99.90;;;;;;5031699;28;20038;-72
2023/08/14 11:09:05;;;;;;;2.25;1.10;;;20.90;99.90;;;;;;5032131;28;20049;-72
2023/08/14 11:11:31;;;;;;;1.38;0.80;;;20.90;99.90;;;;;;5032865;28;20038;-72
2023/08/14 11:13:57;;;;;;;2.92;0.85;;;20.90;99.90;;;;;;5031932;28;20048;-72
2023/08/14 11:16:23;;;;;;;2.78;0.65;;;20.90;99.90;;;;;;5031667;28;20531;-72
2023/08/14 11:18:50;;;;;;;2.55;0.77;;;21.00;99.90;;;;;;5032608;28;20446;-72
2023/08/14 11:21:15;;;;;;;2.60;0.80;;;21.00;99.90;;;;;;5031318;28;20056;-72
2023/08/14 11:23:41;;;;;;;2.08;0.80;;;21.00;99.90;;;;;;5032400;28;20543;-72
2023/08/14 11:26:06;;;;;;;2.33;0.60;;;21.00;99.90;;;;;;5031195;28;20096;-72
2023/08/14 11:28:32;;;;;;;2.78;1.00;;;21.00;99.90;;;;;;5032220;28;20053;-72
2023/08/14 11:30:58;;;;;;;2.85;0.90;;;21.10;99.90;;;;;;5031231;28;20052;-73
2023/08/14 11:33:23;;;;;;;1.75;0.75;;;21.10;99.90;;;;;;5047644;28;20042;-72
2023/08/14 11:35:53;;;;;;;3.35;0.98;;;21.10;99.90;;;;;;5031342;28;20116;-73
2023/08/14 11:38:19;;;;;;;2.53;0.93;;;21.10;99.90;;;;;;5032091;28;20502;-72
2023/08/14 11:40:45;;;;;;;3.10;0.90;;;21.20;99.90;;;;;;5032379;28;20041;-72
2023/08/14 11:43:12;;;;;;;2.50;1.17;;;21.20;99.90;;;;;;5032050;28;20048;-72
2023/08/14 11:45:38;;;;;;;2.88;1.13;;;21.20;99.90;;;;;;5047561;28;20045;-72
2023/08/14 11:48:04;;;;;;;2.45;1.00;;;21.30;99.90;;;;;;5032485;28;20052;-72
2023/08/14 11:50:30;;;;;;;2.45;0.90;;;21.30;99.90;;;;;;5047334;28;20045;-72
2023/08/14 11:52:56;;;;;;;2.95;0.98;;;21.30;99.90;;;;;;5030769;28;20411;-72
2023/08/14 11:55:22;;;;;;;2.40;0.85;;;21.30;99.90;;;;;;5032329;28;20064;-72
2023/08/14 11:57:48;;;;;;;2.20;0.85;;;21.30;99.90;;;;;;5032078;28;20538;-72
2023/08/14 12:00:15;;;;;;;3.45;1.00;;;21.30;99.90;;;;;;5031914;28;20408;-72
2023/08/14 12:02:40;;;;;;;2.08;0.85;;;21.30;99.90;;;;;;5031673;28;20069;-72
2023/08/14 12:05:07;;;;;;;2.13;0.70;;;21.20;99.90;;;;;;5030458;28;20077;-72
2023/08/14 12:07:33;;;;;;;2.55;0.80;;;21.10;99.90;;;;;;5031415;28;20483;-72
2023/08/14 12:10:05;;;;;;;3.42;1.10;;;21.10;99.90;;;;;;5030402;28;20091;-72
2023/08/14 12:12:30;;;;;;;3.33;1.13;;;21.10;99.90;;;;;;5030438;28;20479;-72
2023/08/14 12:14:56;;;;;;;2.70;1.10;;;21.10;99.90;;;;;;5031635;28;20103;-72
2023/08/14 12:17:22;;;;;;;2.97;0.80;;;21.10;99.90;;;;;;5029744;28;20037;-72
2023/08/14 12:19:53;;;;;;;2.55;1.00;;;21.10;99.90;;;;;;5031369;28;20046;-72
2023/08/14 12:22:23;;;;;;;3.63;0.95;;;21.10;99.90;;;;;;5031468;28;20457;-72
2023/08/14 12:24:49;;;;;;;3.10;0.95;;;21.20;99.90;;;;;;5046884;28;20351;-72
2023/08/14 12:27:24;;;;;;;2.03;0.90;;;21.20;99.90;;;;;;5031315;28;20064;-72
2023/08/14 12:29:51;;;;;;;4.43;1.08;;;21.20;99.90;;;;;;5029921;28;20415;-72
2023/08/14 12:32:18;;;;;;;2.05;0.88;;;21.30;99.90;;;;;;5030256;28;20050;-72
2023/08/14 12:34:44;;;;;;;1.77;0.80;;;21.30;99.90;;;;;;5029829;28;20048;-72
2023/08/14 12:37:14;;;;;;;1.80;0.80;;;21.30;99.90;;;;;;5030143;28;20033;-72
2023/08/14 12:39:39;;;;;;;3.72;1.00;;;21.30;99.90;;;;;;5029855;28;20041;-72
2023/08/14 12:42:06;;;;;;;3.40;1.10;;;21.30;99.90;;;;;;5029698;28;20056;-72
2023/08/14 12:44:32;;;;;;;2.35;0.90;;;21.30;99.90;;;;;;5029727;28;20041;-72
2023/08/14 12:46:58;;;;;;;2.38;0.82;;;21.40;99.90;;;;;;5030866;28;20049;-72